Time;durP1;ratioP1;P1;durP2;ratioP2;P2;SDS_P1;SDS_P2;PMS_P1;PMS_P2;Temp;Humidity;BMP_temperature;BMP_pressure;BME280_temperature;BME280_humidity;BME280_pressure;Samples;Min_cycle;Max_cycle;Signal;HPM_P1;HPM_P2
2021/09/08 00:01:16;;;;;;;12.45;5.30;;;;;;;10.09;72.47;102199.13;1866438;76;21149;-66
2021/09/08 00:03:45;;;;;;;12.25;6.00;;;;;;;10.03;72.62;102206.66;1896004;76;21121;-67
2021/09/08 00:06:14;;;;;;;14.38;6.28;;;;;;;9.95;73.42;102198.88;1896105;76;21109;-66
2021/09/08 00:08:43;;;;;;;16.10;6.00;;;;;;;9.88;73.64;102195.89;1896101;76;21071;-66
2021/09/08 00:11:11;;;;;;;20.62;6.33;;;;;;;9.82;73.75;102206.05;1896078;76;21075;-66
2021/09/08 00:13:40;;;;;;;18.73;6.62;;;;;;;9.83;73.33;102199.02;1896312;76;21536;-66
2021/09/08 00:16:09;;;;;;;18.10;7.30;;;;;;;9.83;73.23;102202.97;1896035;76;21110;-66
2021/09/08 00:18:38;;;;;;;15.43;6.78;;;;;;;9.83;73.43;102208.23;1896089;76;21068;-66
2021/09/08 00:21:07;;;;;;;12.00;6.80;;;;;;;9.81;73.08;102203.44;1896132;76;21502;-66
2021/09/08 00:23:35;;;;;;;14.58;6.90;;;;;;;9.80;73.27;102208.29;1896177;76;21432;-66
2021/09/08 00:26:04;;;;;;;16.50;6.42;;;;;;;9.77;73.15;102209.63;1896098;76;21024;-66
2021/09/08 00:28:33;;;;;;;15.72;6.37;;;;;;;9.74;72.93;102210.97;1896177;76;21075;-66
2021/09/08 00:31:02;;;;;;;12.23;5.92;;;;;;;9.71;73.12;102214.52;1896214;76;21075;-66
2021/09/08 00:33:31;;;;;;;14.15;5.80;;;;;;;9.66;73.40;102215.02;1896210;76;21091;-66
2021/09/08 00:36:01;;;;;;;15.75;5.75;;;;;;;9.64;73.45;102222.05;1896121;76;21099;-66
2021/09/08 00:38:31;;;;;;;10.60;5.37;;;;;;;9.59;73.52;102210.71;1896025;76;21086;-66
2021/09/08 00:41:01;;;;;;;11.68;5.40;;;;;;;9.57;73.32;102221.27;1896201;76;21067;-66
2021/09/08 00:43:30;;;;;;;8.58;4.75;;;;;;;9.53;73.67;102211.65;1895960;76;21071;-66
2021/09/08 00:46:00;;;;;;;13.03;5.45;;;;;;;9.51;73.67;102216.06;1896066;76;21520;-66
2021/09/08 00:48:29;;;;;;;12.85;5.55;;;;;;;9.46;74.10;102212.18;1896217;76;21078;-66
2021/09/08 00:50:58;;;;;;;14.40;5.97;;;;;;;9.46;74.08;102215.23;1896101;76;21133;-66
2021/09/08 00:53:27;;;;;;;14.33;6.00;;;;;;;9.46;73.94;102214.81;1896103;76;21536;-66
2021/09/08 00:55:57;;;;;;;18.32;6.45;;;;;;;9.43;74.14;102215.28;1895955;76;21068;-66
2021/09/08 00:58:27;;;;;;;14.00;6.15;;;;;;;9.41;74.35;102207.41;1895811;76;21078;-66
2021/09/08 01:00:57;;;;;;;18.52;6.62;;;;;;;9.38;74.57;102208.75;1896121;76;21074;-66
2021/09/08 01:03:27;;;;;;;13.55;6.25;;;;;;;9.36;74.33;102213.61;1896089;76;21560;-66
2021/09/08 01:05:58;;;;;;;15.23;6.22;;;;;;;9.34;74.27;102216.25;1896113;76;21094;-66
2021/09/08 01:08:28;;;;;;;12.23;5.92;;;;;;;9.32;74.18;102218.02;1895966;76;21067;-66
2021/09/08 01:10:58;;;;;;;11.68;5.53;;;;;;;9.27;74.09;102215.42;1896338;76;21113;-66
2021/09/08 01:13:29;;;;;;;12.05;5.58;;;;;;;9.24;74.06;102223.36;1895961;76;21522;-66
2021/09/08 01:16:02;;;;;;;14.38;6.55;;;;;;;9.20;74.17;102217.71;1896047;76;21084;-65
2021/09/08 01:18:30;;;;;;;;;;;;;;;9.17;74.32;102219.05;1898885;76;21056;-66
2021/09/08 01:21:00;;;;;;;13.68;6.20;;;;;;;9.14;74.12;102211.18;1895975;76;20177;-66
2021/09/08 01:23:29;;;;;;;16.37;6.28;;;;;;;9.10;74.00;102219.13;1896067;76;21552;-66
2021/09/08 01:25:59;;;;;;;12.33;6.58;;;;;;;9.07;74.28;102222.63;1896189;76;21114;-67
2021/09/08 01:28:28;;;;;;;16.30;6.83;;;;;;;9.02;74.93;102217.89;1896086;76;21036;-66
2021/09/08 01:30:58;;;;;;;13.45;7.20;;;;;;;8.94;75.34;102219.69;1896078;76;21487;-67
2021/09/08 01:33:27;;;;;;;14.38;7.03;;;;;;;8.90;75.60;102221.47;1895977;76;21051;-67
2021/09/08 01:35:55;;;;;;;16.02;7.28;;;;;;;8.88;75.87;102222.79;1876273;76;21144;-66
2021/09/08 01:38:25;;;;;;;11.90;6.67;;;;;;;8.83;76.30;102216.70;1859265;77;21098;-66
2021/09/08 01:40:53;;;;;;;11.43;6.35;;;;;;;8.81;76.56;102211.90;1859488;77;21049;-66
2021/09/08 01:43:24;;;;;;;12.13;6.45;;;;;;;8.81;76.57;102216.29;1859533;77;21014;-66
2021/09/08 01:45:53;;;;;;;16.37;7.08;;;;;;;8.81;76.14;102215.84;1859377;77;21112;-67
2021/09/08 01:48:22;;;;;;;14.30;6.97;;;;;;;8.79;75.92;102211.05;1859352;77;21493;-66
2021/09/08 01:50:51;;;;;;;13.80;7.05;;;;;;;8.79;75.95;102213.67;1859449;77;21082;-66
2021/09/08 01:53:20;;;;;;;11.93;6.28;;;;;;;8.78;76.31;102209.32;1859369;77;21074;-66
2021/09/08 01:55:49;;;;;;;15.55;6.35;;;;;;;8.78;76.15;102208.42;1859381;77;21438;-66
2021/09/08 01:58:18;;;;;;;14.63;6.45;;;;;;;8.76;75.99;102202.31;1859306;77;21066;-66
2021/09/08 02:00:46;;;;;;;14.30;7.12;;;;;;;8.75;75.99;102207.16;1859484;77;21188;-66
2021/09/08 02:03:15;;;;;;;10.75;5.85;;;;;;;8.72;76.13;102210.66;1859366;77;21053;-67
2021/09/08 02:05:44;;;;;;;13.00;6.00;;;;;;;8.70;76.37;102209.80;1859377;77;21052;-66
2021/09/08 02:08:12;;;;;;;12.65;6.22;;;;;;;8.68;76.27;102216.83;1859337;77;21061;-66
2021/09/08 02:10:41;;;;;;;14.73;6.75;;;;;;;8.66;76.29;102208.09;1859399;77;21133;-65
2021/09/08 02:13:10;;;;;;;11.30;5.87;;;;;;;8.64;76.41;102204.61;1859355;77;21555;-66
2021/09/08 02:15:39;;;;;;;15.32;5.80;;;;;;;8.61;76.57;102205.94;1859358;77;21128;-66
2021/09/08 02:18:07;;;;;;;14.23;5.78;;;;;;;8.58;76.68;102205.98;1859300;76;21054;-65
2021/09/08 02:20:36;;;;;;;12.33;6.40;;;;;;;8.56;76.67;102202.47;1859377;76;21535;-66
2021/09/08 02:23:05;;;;;;;12.73;6.28;;;;;;;8.54;76.54;102201.19;1859353;77;21558;-66
2021/09/08 02:25:34;;;;;;;14.63;6.28;;;;;;;8.54;76.49;102203.81;1859197;77;21593;-66
2021/09/08 02:28:03;;;;;;;15.30;6.70;;;;;;;8.54;76.41;102206.86;1859379;77;21085;-66
2021/09/08 02:30:31;;;;;;;12.93;6.40;;;;;;;8.50;76.52;102204.28;1859370;77;21126;-66
2021/09/08 02:33:00;;;;;;;12.50;5.45;;;;;;;8.46;76.69;102206.47;1859434;77;21551;-66
2021/09/08 02:35:29;;;;;;;11.63;6.58;;;;;;;8.43;77.00;102205.65;1859397;74;21061;-66
2021/09/08 02:37:58;;;;;;;11.95;5.90;;;;;;;8.40;77.22;102209.11;1859369;77;21050;-66
2021/09/08 02:40:26;;;;;;;12.73;5.80;;;;;;;8.39;77.09;102210.02;1859515;76;21066;-66
2021/09/08 02:42:55;;;;;;;12.50;6.00;;;;;;;8.38;77.08;102207.39;1859346;77;21094;-67
2021/09/08 02:45:24;;;;;;;14.68;6.25;;;;;;;8.33;77.24;102209.17;1859350;77;21074;-66
2021/09/08 02:47:53;;;;;;;11.80;6.08;;;;;;;8.29;77.35;102206.55;1859347;77;21090;-66
2021/09/08 02:50:22;;;;;;;12.05;5.75;;;;;;;8.26;77.43;102205.70;1859490;77;21069;-66
2021/09/08 02:52:51;;;;;;;8.85;5.97;;;;;;;8.25;77.27;102200.03;1859276;77;21536;-66
2021/09/08 02:55:19;;;;;;;11.70;6.20;;;;;;;8.27;77.28;102202.20;1859390;77;21062;-65
2021/09/08 02:57:48;;;;;;;11.03;6.17;;;;;;;8.26;77.10;102204.38;1859336;77;21493;-65
2021/09/08 03:00:18;;;;;;;13.38;5.97;;;;;;;8.26;77.23;102200.45;1859331;77;21500;-65
2021/09/08 03:02:47;;;;;;;10.88;5.62;;;;;;;8.26;77.48;102197.82;1859291;77;21101;-65
2021/09/08 03:05:16;;;;;;;11.70;4.92;;;;;;;8.23;77.53;102201.80;1859421;77;21124;-65
2021/09/08 03:07:45;;;;;;;11.90;7.22;;;;;;;8.22;77.71;102201.35;1859363;77;21046;-66
2021/09/08 03:10:14;;;;;;;14.60;7.15;;;;;;;8.21;77.64;102199.63;1859370;77;21054;-66
2021/09/08 03:12:42;;;;;;;16.52;9.80;;;;;;;8.22;77.72;102204.84;1859563;77;21117;-65
2021/09/08 03:15:12;;;;;;;17.73;11.65;;;;;;;8.22;77.76;102209.22;1859364;77;21089;-65
2021/09/08 03:17:40;;;;;;;21.93;13.72;;;;;;;8.17;77.87;102196.56;1859391;77;21039;-65
2021/09/08 03:20:10;;;;;;;31.50;16.45;;;;;;;8.18;77.97;102203.57;1859293;77;21054;-65
2021/09/08 03:22:39;;;;;;;26.17;17.65;;;;;;;8.21;77.93;102202.25;1859464;77;21022;-65
2021/09/08 03:25:09;;;;;;;18.05;13.88;;;;;;;8.23;78.03;102208.36;1859301;77;21074;-65
2021/09/08 03:27:40;;;;;;;16.55;11.50;;;;;;;8.28;78.08;102199.99;1859479;77;21039;-66
2021/09/08 03:30:09;;;;;;;12.55;10.03;;;;;;;8.41;77.91;102216.13;1859241;77;21066;-65
2021/09/08 03:32:38;;;;;;;12.70;10.25;;;;;;;8.54;77.65;102210.80;1859290;77;21112;-65
2021/09/08 03:35:07;;;;;;;16.87;9.25;;;;;;;8.64;77.36;102208.55;1859358;77;21054;-65
2021/09/08 03:37:37;;;;;;;10.82;7.15;;;;;;;8.74;77.29;102204.95;1882229;75;21158;-65
2021/09/08 03:40:06;;;;;;;12.95;6.78;;;;;;;8.82;77.17;102208.41;1896103;76;21155;-63
2021/09/08 03:42:40;;;;;;;11.95;5.62;;;;;;;9.00;76.84;102206.07;1896026;76;21027;-64
2021/09/08 03:45:09;;;;;;;;;;;;;;;9.32;76.43;102213.22;1898842;76;21083;-64
2021/09/08 03:47:39;;;;;;;19.25;6.58;;;;;;;9.71;75.98;102201.83;1895190;76;20137;-64
2021/09/08 03:50:09;;;;;;;12.63;6.42;;;;;;;9.94;75.63;102203.73;1896107;76;21439;-64
2021/09/08 03:52:37;;;;;;;9.65;4.90;;;;;;;10.22;75.40;102207.30;1896011;76;21140;-64
2021/09/08 03:55:07;;;;;;;10.05;5.85;;;;;;;10.50;75.03;102205.61;1896135;76;21016;-65
2021/09/08 03:57:36;;;;;;;7.50;4.60;;;;;;;10.78;74.74;102201.62;1896183;76;21043;-64
2021/09/08 04:00:07;;;;;;;8.40;4.50;;;;;;;11.13;74.49;102198.83;1896085;76;21044;-64
2021/09/08 04:02:37;;;;;;;8.28;4.45;;;;;;;11.51;74.11;102201.20;1895923;76;21040;-65
2021/09/08 04:05:06;;;;;;;7.65;4.33;;;;;;;11.86;73.53;102199.63;1896128;76;21502;-64
2021/09/08 04:07:35;;;;;;;10.55;5.03;;;;;;;12.19;72.65;102200.27;1896175;76;21040;-66
2021/09/08 04:10:04;;;;;;;8.95;4.80;;;;;;;12.51;72.00;102195.56;1896022;76;21039;-64
2021/09/08 04:12:33;;;;;;;10.13;5.12;;;;;;;12.83;71.56;102197.87;1896236;76;21035;-64
2021/09/08 04:15:02;;;;;;;8.88;5.97;;;;;;;13.19;71.26;102197.84;1896129;76;21083;-64
2021/09/08 04:17:31;;;;;;;11.12;5.60;;;;;;;13.54;71.21;102199.54;1896132;76;21497;-64
2021/09/08 04:20:00;;;;;;;9.75;4.10;;;;;;;13.89;70.71;102202.48;1896167;76;21099;-64
2021/09/08 04:22:28;;;;;;;8.90;4.92;;;;;;;14.25;69.99;102204.91;1896015;76;21072;-64
2021/09/08 04:24:57;;;;;;;11.35;4.65;;;;;;;14.64;69.50;102195.78;1896098;76;21506;-65
2021/09/08 04:27:26;;;;;;;11.15;4.75;;;;;;;14.94;68.30;102201.86;1896127;76;21154;-65
2021/09/08 04:29:55;;;;;;;9.40;4.10;;;;;;;15.19;67.41;102194.36;1896210;76;21112;-66
2021/09/08 04:32:23;;;;;;;14.40;6.08;;;;;;;15.54;66.73;102192.23;1896123;76;21051;-64
2021/09/08 04:34:52;;;;;;;8.50;4.20;;;;;;;15.91;65.92;102198.38;1896018;76;21201;-65
2021/09/08 04:37:21;;;;;;;14.18;4.33;;;;;;;16.30;65.01;102199.55;1896026;76;21095;-64
2021/09/08 04:39:50;;;;;;;10.85;4.50;;;;;;;16.63;64.05;102200.44;1896039;76;21036;-64
2021/09/08 04:42:19;;;;;;;6.22;3.62;;;;;;;16.92;63.09;102201.44;1896110;76;21515;-64
2021/09/08 04:44:47;;;;;;;10.20;3.90;;;;;;;17.25;62.21;102194.27;1896103;76;21059;-66
2021/09/08 04:47:16;;;;;;;9.55;3.17;;;;;;;17.53;61.04;102193.89;1896091;76;21044;-67
2021/09/08 04:49:45;;;;;;;6.70;3.58;;;;;;;17.71;60.17;102186.86;1896033;76;21079;-66
2021/09/08 04:52:15;;;;;;;6.67;2.98;;;;;;;17.80;59.50;102186.02;1896085;76;21180;-67
2021/09/08 04:54:44;;;;;;;9.73;3.35;;;;;;;17.90;58.81;102184.23;1896105;76;21052;-65
2021/09/08 04:57:12;;;;;;;14.28;5.47;;;;;;;18.12;58.31;102181.41;1896216;76;21090;-64
2021/09/08 04:59:41;;;;;;;11.90;3.92;;;;;;;18.35;56.99;102176.76;1896066;76;21048;-64
2021/09/08 05:02:10;;;;;;;11.20;4.47;;;;;;;18.56;56.06;102179.33;1896021;76;21071;-64
2021/09/08 05:04:39;;;;;;;12.25;4.08;;;;;;;18.69;54.98;102183.11;1896095;76;21047;-65
2021/09/08 05:07:08;;;;;;;11.50;3.12;;;;;;;18.80;54.11;102183.42;1896197;76;21040;-65
2021/09/08 05:09:37;;;;;;;9.45;3.95;;;;;;;18.85;53.51;102177.42;1896143;76;21040;-64
2021/09/08 05:12:06;;;;;;;10.98;3.15;;;;;;;19.01;52.69;102177.95;1896020;76;21071;-64
2021/09/08 05:14:40;;;;;;;7.25;3.05;;;;;;;19.13;52.40;102175.99;1895873;76;21043;-64
2021/09/08 05:17:07;;;;;;;7.40;2.90;;;;;;;19.35;52.00;102178.39;1895581;76;21125;-64
2021/09/08 05:19:37;;;;;;;6.65;2.77;;;;;;;19.43;50.88;102183.31;1896238;76;21048;-64
2021/09/08 05:22:14;;;;;;;7.97;3.55;;;;;;;19.55;50.56;102178.66;1894869;76;21555;-64
2021/09/08 05:24:40;;;;;;;;;;;;;;;19.56;50.04;102172.35;1898364;76;21075;-64
2021/09/08 05:27:12;;;;;;;9.25;3.25;;;;;;;19.82;50.11;102175.44;1895929;76;20171;-64
2021/09/08 05:29:40;;;;;;;10.03;3.02;;;;;;;20.10;50.18;102180.58;1896032;76;21139;-64
2021/09/08 05:32:09;;;;;;;5.60;2.33;;;;;;;20.29;49.13;102177.71;1896086;76;21055;-64
2021/09/08 05:34:38;;;;;;;15.32;2.95;;;;;;;20.44;48.76;102179.52;1896228;76;21154;-64
2021/09/08 05:37:06;;;;;;;6.78;2.25;;;;;;;20.83;48.82;102173.66;1896078;76;21051;-64
2021/09/08 05:39:37;;;;;;;6.28;2.85;;;;;;;21.20;48.06;102171.91;1864582;76;21098;-65
2021/09/08 05:42:07;;;;;;;8.23;2.85;;;;;;;21.43;47.29;102159.76;1859378;76;21194;-64
2021/09/08 05:44:35;;;;;;;9.68;3.15;;;;;;;21.71;47.00;102163.44;1859422;77;21513;-64
2021/09/08 05:47:04;;;;;;;6.03;2.40;;;;;;;21.78;46.12;102165.63;1859379;77;21046;-64
2021/09/08 05:49:33;;;;;;;10.93;2.87;;;;;;;22.00;45.65;102162.88;1859529;77;21851;-64
2021/09/08 05:52:03;;;;;;;8.90;2.95;;;;;;;22.02;44.69;102157.42;1859519;77;21062;-65
2021/09/08 05:54:32;;;;;;;8.70;3.35;;;;;;;22.18;45.12;102159.48;1859490;77;21042;-64
2021/09/08 05:57:00;;;;;;;8.88;3.72;;;;;;;22.42;44.75;102155.68;1859464;77;21073;-65
2021/09/08 05:59:29;;;;;;;9.23;2.50;;;;;;;22.75;44.35;102151.19;1859465;76;21030;-64
2021/09/08 06:01:58;;;;;;;5.55;2.52;;;;;;;23.02;43.37;102150.73;1859378;77;21038;-64
2021/09/08 06:04:27;;;;;;;4.47;2.12;;;;;;;23.12;43.13;102143.30;1859338;77;21054;-65
2021/09/08 06:06:57;;;;;;;6.00;2.00;;;;;;;23.19;41.92;102141.06;1859379;77;21120;-64
2021/09/08 06:09:26;;;;;;;7.35;1.98;;;;;;;23.39;42.08;102146.86;1859478;77;21030;-65
2021/09/08 06:11:58;;;;;;;3.87;1.65;;;;;;;23.51;41.07;102148.16;1859503;77;21120;-64
2021/09/08 06:14:27;;;;;;;2.60;1.50;;;;;;;23.32;39.43;102149.11;1859650;77;21477;-64
2021/09/08 06:16:55;;;;;;;5.20;1.67;;;;;;;23.08;39.25;102148.52;1859253;77;21070;-65
2021/09/08 06:19:24;;;;;;;2.75;1.52;;;;;;;22.84;38.92;102152.89;1859325;77;21130;-64
2021/09/08 06:21:53;;;;;;;6.60;1.35;;;;;;;22.80;39.42;102150.89;1859350;77;21633;-64
2021/09/08 06:24:22;;;;;;;6.87;1.40;;;;;;;22.90;39.25;102153.80;1859395;77;21061;-64
2021/09/08 06:26:51;;;;;;;7.47;1.32;;;;;;;22.72;38.39;102155.45;1859400;77;21481;-64
2021/09/08 06:29:21;;;;;;;5.53;1.92;;;;;;;22.56;37.97;102156.11;1859392;77;21094;-64
2021/09/08 06:31:49;;;;;;;3.85;1.52;;;;;;;22.57;38.52;102148.42;1859318;77;21672;-65
2021/09/08 06:34:18;;;;;;;3.85;1.60;;;;;;;22.72;38.53;102138.00;1859310;77;21501;-63
2021/09/08 06:36:49;;;;;;;2.12;1.60;;;;;;;22.68;38.04;102153.06;1859479;77;21054;-63
2021/09/08 06:39:17;;;;;;;8.25;3.90;;;;;;;22.64;38.06;102144.85;1875102;75;21083;-63
2021/09/08 06:41:48;;;;;;;5.37;3.08;;;;;;;22.45;37.87;102152.80;1895990;76;21550;-63
2021/09/08 06:44:17;;;;;;;6.95;3.85;;;;;;;22.42;38.06;102158.86;1896081;76;21051;-63
2021/09/08 06:46:47;;;;;;;3.62;2.22;;;;;;;22.84;38.41;102153.74;1896076;76;21593;-63
2021/09/08 06:49:16;;;;;;;6.75;1.85;;;;;;;23.00;37.90;102154.89;1896034;76;21064;-63
2021/09/08 06:51:45;;;;;;;5.37;2.10;;;;;;;23.19;37.78;102153.64;1896065;76;21048;-63
2021/09/08 06:54:14;;;;;;;4.37;1.60;;;;;;;23.29;37.56;102147.98;1896046;76;21180;-63
2021/09/08 06:56:43;;;;;;;3.30;1.75;;;;;;;23.55;37.11;102147.95;1895901;76;21520;-63
2021/09/08 06:59:12;;;;;;;1.70;1.30;;;;;;;23.89;37.43;102145.91;1896069;76;21040;-63
2021/09/08 07:01:41;;;;;;;6.55;2.50;;;;;;;24.09;36.43;102144.93;1896016;76;21139;-63
2021/09/08 07:04:10;;;;;;;2.12;1.50;;;;;;;24.21;36.03;102142.65;1896052;76;21149;-63
2021/09/08 07:06:38;;;;;;;2.58;1.37;;;;;;;24.55;35.68;102145.53;1896131;76;21063;-63
2021/09/08 07:09:09;;;;;;;4.58;1.80;;;;;;;24.87;35.39;102139.48;1895910;76;21043;-64
2021/09/08 07:11:37;;;;;;;9.25;1.55;;;;;;;25.27;35.23;102140.44;1896097;76;21055;-63
2021/09/08 07:14:07;;;;;;;7.62;1.55;;;;;;;25.77;35.12;102140.03;1895983;76;21076;-63
2021/09/08 07:16:35;;;;;;;3.50;1.30;;;;;;;25.83;33.49;102144.06;1896211;76;21063;-63
2021/09/08 07:19:05;;;;;;;4.20;1.30;;;;;;;25.76;33.38;102135.11;1896014;76;21119;-64
2021/09/08 07:21:34;;;;;;;5.03;1.32;;;;;;;25.96;33.51;102139.41;1895903;76;21112;-65
2021/09/08 07:24:05;;;;;;;3.67;1.55;;;;;;;26.02;32.92;102136.19;1896100;76;21055;-64
2021/09/08 07:26:33;;;;;;;2.90;1.60;;;;;;;26.12;32.88;102132.25;1896121;76;21040;-64
2021/09/08 07:29:07;;;;;;;7.30;1.72;;;;;;;26.04;32.29;102130.16;1896060;76;21028;-64
2021/09/08 07:31:37;;;;;;;5.55;1.30;;;;;;;26.11;32.26;102124.63;1896116;76;21117;-64
2021/09/08 07:34:06;;;;;;;4.78;1.47;;;;;;;26.12;31.89;102120.95;1896026;76;21545;-64
2021/09/08 07:36:35;;;;;;;12.80;6.62;;;;;;;26.22;32.46;102122.88;1896076;76;21079;-64
2021/09/08 07:39:04;;;;;;;3.22;1.70;;;;;;;26.35;32.49;102118.16;1896088;75;21091;-65
2021/09/08 07:41:32;;;;;;;4.50;1.77;;;;;;;26.66;32.26;102114.23;1896148;76;21031;-64
2021/09/08 07:44:01;;;;;;;4.30;1.35;;;;;;;26.70;31.91;102115.16;1896116;76;21039;-64
2021/09/08 07:46:30;;;;;;;3.27;1.50;;;;;;;27.06;32.26;102111.62;1896116;76;21465;-64
2021/09/08 07:48:59;;;;;;;5.25;1.20;;;;;;;27.32;30.95;102109.34;1896014;76;21079;-64
2021/09/08 07:51:28;;;;;;;4.75;1.62;;;;;;;27.21;31.19;102108.55;1896195;76;21012;-64
2021/09/08 07:53:57;;;;;;;7.00;2.22;;;;;;;27.20;31.09;102111.73;1896130;76;21083;-64
2021/09/08 07:56:26;;;;;;;3.17;1.72;;;;;;;27.47;30.98;102099.50;1896207;76;21024;-64
2021/09/08 07:58:55;;;;;;;3.52;1.20;;;;;;;27.71;30.64;102106.73;1896065;76;21517;-64
2021/09/08 08:01:24;;;;;;;4.53;2.27;;;;;;;27.49;30.48;102097.51;1896018;76;21114;-64
2021/09/08 08:03:53;;;;;;;3.45;1.12;;;;;;;27.51;30.71;102095.52;1896110;76;21548;-64
2021/09/08 08:06:23;;;;;;;2.25;1.20;;;;;;;27.52;29.61;102095.89;1896170;76;21071;-65
2021/09/08 08:08:51;;;;;;;8.65;2.50;;;;;;;27.49;29.76;102090.74;1896139;76;21051;-65
2021/09/08 08:11:20;;;;;;;4.08;1.98;;;;;;;27.51;29.47;102094.16;1896150;76;21117;-64
2021/09/08 08:13:48;;;;;;;7.78;1.10;;;;;;;27.36;29.49;102084.73;1896118;76;21121;-65
2021/09/08 08:16:17;;;;;;;2.77;1.17;;;;;;;27.46;29.61;102078.84;1896126;76;21044;-64
2021/09/08 08:18:46;;;;;;;4.05;1.17;;;;;;;27.80;29.25;102082.55;1896217;76;21076;-64
2021/09/08 08:21:15;;;;;;;6.62;1.17;;;;;;;27.75;29.18;102078.91;1896039;76;21521;-64
2021/09/08 08:23:44;;;;;;;2.42;1.00;;;;;;;27.72;29.33;102081.41;1896201;76;21125;-64
2021/09/08 08:26:12;;;;;;;1.45;1.00;;;;;;;27.71;29.07;102084.24;1896047;76;21155;-66
2021/09/08 08:28:41;;;;;;;4.67;1.17;;;;;;;27.76;28.94;102081.10;1896087;76;21059;-65
2021/09/08 08:31:10;;;;;;;2.35;1.10;;;;;;;27.94;29.33;102085.36;1896200;76;21047;-65
2021/09/08 08:33:40;;;;;;;5.35;1.20;;;;;;;27.99;28.74;102078.53;1896120;76;21055;-65
2021/09/08 08:36:08;;;;;;;4.83;1.60;;;;;;;27.71;28.21;102071.56;1896088;76;21068;-64
2021/09/08 08:38:37;;;;;;;3.90;1.50;;;;;;;27.52;28.83;102073.74;1896078;76;21169;-65
2021/09/08 08:41:07;;;;;;;4.60;1.57;;;;;;;27.62;28.81;102066.14;1875692;76;21093;-65
2021/09/08 08:43:35;;;;;;;4.08;1.32;;;;;;;27.83;29.19;102064.66;1859424;77;21516;-65
2021/09/08 08:46:04;;;;;;;3.85;1.25;;;;;;;28.04;28.81;102058.66;1859450;77;21074;-65
2021/09/08 08:48:33;;;;;;;4.58;1.25;;;;;;;28.19;28.55;102052.81;1859631;77;21489;-64
2021/09/08 08:51:02;;;;;;;3.50;1.40;;;;;;;28.16;28.39;102055.80;1859430;77;21058;-64
2021/09/08 08:53:30;;;;;;;5.50;1.40;;;;;;;27.84;28.05;102046.09;1859307;77;21034;-65
2021/09/08 08:56:00;;;;;;;4.40;1.17;;;;;;;28.13;28.82;102045.25;1859530;77;21042;-65
2021/09/08 08:58:28;;;;;;;5.60;1.02;;;;;;;28.38;28.45;102040.58;1859636;76;21054;-64
2021/09/08 09:01:21;;;;;;;7.87;1.42;;;;;;;28.59;28.44;102040.92;1859522;77;21128;-65
2021/09/08 09:04:08;;;;;;;8.05;1.40;;;;;;;28.58;28.31;102033.81;1859461;77;21062;-65
2021/09/08 09:06:41;;;;;;;4.45;1.10;;;;;;;28.67;28.30;102028.86;1859436;77;21022;-64
2021/09/08 09:09:12;;;;;;;4.17;1.37;;;;;;;28.50;28.53;102032.66;1859388;77;21074;-64
2021/09/08 09:11:42;;;;;;;1.60;1.10;;;;;;;28.44;28.30;102026.48;1859544;77;21038;-65
2021/09/08 09:14:12;;;;;;;0.90;0.65;;;;;;;28.34;28.20;102028.34;1859311;77;21492;-65
2021/09/08 09:16:43;;;;;;;2.17;1.00;;;;;;;28.27;28.08;102044.81;1859534;77;21559;-65
2021/09/08 09:19:13;;;;;;;11.05;1.80;;;;;;;27.93;27.71;102035.80;1859443;77;21034;-65
2021/09/08 09:21:43;;;;;;;3.25;1.07;;;;;;;27.76;28.27;102032.39;1859522;77;21047;-65
2021/09/08 09:24:11;;;;;;;2.17;0.95;;;;;;;27.64;28.30;102028.47;1859555;77;21535;-65
2021/09/08 09:26:42;;;;;;;2.65;1.15;;;;;;;27.83;28.64;102030.36;1859352;77;21449;-66
2021/09/08 09:29:13;;;;;;;3.00;1.37;;;;;;;27.84;28.55;102025.28;1859522;77;21026;-65
2021/09/08 09:32:01;;;;;;;4.78;1.15;;;;;;;27.96;28.75;102021.98;1859431;77;21068;-65
2021/09/08 09:34:31;;;;;;;4.00;1.40;;;;;;;27.99;28.33;102020.83;1859410;77;21062;-64
2021/09/08 09:37:01;;;;;;;7.33;1.15;;;;;;;28.03;28.68;102014.97;1859485;77;21054;-66
2021/09/08 09:39:32;;;;;;;2.05;1.12;;;;;;;28.23;29.09;102016.31;1859404;77;21575;-65
2021/09/08 09:42:03;;;;;;;8.08;1.40;;;;;;;28.38;28.67;102008.08;1859454;74;21145;-64
2021/09/08 09:44:33;;;;;;;3.55;1.15;;;;;;;28.39;28.50;102009.80;1857908;77;21082;-65
2021/09/08 09:47:02;;;;;;;6.28;1.20;;;;;;;28.47;28.32;102009.91;1859617;77;21492;-65
2021/09/08 09:49:35;;;;;;;6.47;1.07;;;;;;;28.33;28.19;102011.75;1859457;77;21042;-67
2021/09/08 09:52:08;;;;;;;6.35;1.30;;;;;;;28.43;28.58;102004.44;1859341;77;21092;-64
2021/09/08 09:54:36;;;;;;;;;;;;;;;28.56;28.87;102007.37;1862279;77;21022;-65
2021/09/08 09:57:05;;;;;;;4.30;1.20;;;;;;;28.37;28.24;102006.39;1859508;77;20146;-65
2021/09/08 09:59:35;;;;;;;5.95;1.20;;;;;;;28.22;28.86;101995.16;1859410;77;21558;-65
2021/09/08 10:02:04;;;;;;;2.10;0.90;;;;;;;28.17;28.69;102006.08;1859296;77;21100;-65
2021/09/08 10:04:33;;;;;;;6.75;1.30;;;;;;;28.07;28.57;102002.88;1859424;77;21038;-64
2021/09/08 10:07:04;;;;;;;3.80;1.67;;;;;;;27.95;28.67;102001.31;1859429;77;21551;-64
2021/09/08 10:09:36;;;;;;;5.25;1.07;;;;;;;28.19;29.15;102000.02;1859394;77;21058;-65
2021/09/08 10:12:06;;;;;;;5.67;1.40;;;;;;;28.23;28.42;101996.00;1859795;77;21022;-65
2021/09/08 10:14:35;;;;;;;4.30;1.37;;;;;;;28.23;28.42;101996.00;1859307;77;21327;-67
2021/09/08 10:17:04;;;;;;;3.87;1.20;;;;;;;27.88;28.01;101986.61;1859394;76;21477;-65
2021/09/08 10:19:33;;;;;;;2.15;0.95;;;;;;;27.62;28.51;101980.92;1859354;77;21489;-65
2021/09/08 10:22:11;;;;;;;3.50;1.10;;;;;;;27.79;29.03;101982.05;1859328;77;21132;-64
2021/09/08 10:24:48;;;;;;;4.08;2.00;;;;;;;28.01;29.12;101983.13;1859388;77;21104;-64
2021/09/08 10:27:33;;;;;;;2.75;1.10;;;;;;;27.92;28.54;101984.00;1859377;77;21091;-65
2021/09/08 10:30:04;;;;;;;4.25;0.98;;;;;;;27.63;28.60;101979.44;1859393;77;21071;-64
2021/09/08 10:32:34;;;;;;;2.90;0.90;;;;;;;27.37;29.12;101971.48;1859393;77;21038;-64
2021/09/08 10:35:12;;;;;;;4.67;1.10;;;;;;;27.38;29.38;101966.45;1859345;77;21532;-64
2021/09/08 10:37:46;;;;;;;11.55;1.62;;;;;;;27.19;29.38;101968.09;1858971;77;21046;-64
2021/09/08 10:40:17;;;;;;;4.75;1.05;;;;;;;27.05;29.83;101968.48;1859383;77;21116;-64
2021/09/08 10:42:52;;;;;;;8.23;1.40;;;;;;;27.13;30.27;101965.92;1882802;76;21059;-64
2021/09/08 10:45:25;;;;;;;4.42;1.22;;;;;;;27.28;30.33;101955.13;1895331;76;21079;-64
2021/09/08 10:47:54;;;;;;;4.75;1.20;;;;;;;27.48;30.15;101965.95;1896176;76;21149;-64
2021/09/08 10:50:38;;;;;;;7.53;1.07;;;;;;;27.70;30.23;101965.69;1896108;76;21090;-64
2021/09/08 10:53:24;;;;;;;5.47;2.22;;;;;;;27.52;30.04;101961.48;1894357;76;21525;-64
2021/09/08 10:55:54;;;;;;;22.50;4.30;;;;;;;27.26;30.33;101958.47;1896245;76;21154;-64
2021/09/08 10:58:23;;;;;;;4.72;1.37;;;;;;;27.05;30.65;101956.32;1896052;76;21126;-65
2021/09/08 11:00:52;;;;;;;8.53;1.75;;;;;;;26.73;30.56;101954.66;1895985;76;21121;-64
2021/09/08 11:03:24;;;;;;;2.37;1.25;;;;;;;26.60;31.28;101954.89;1896092;76;21047;-64
2021/09/08 11:06:01;;;;;;;3.33;1.25;;;;;;;26.62;31.38;101960.16;1896290;76;21125;-64
2021/09/08 11:08:32;;;;;;;4.22;1.20;;;;;;;26.37;30.75;101944.24;1896190;76;21027;-64
2021/09/08 11:11:23;;;;;;;3.52;0.90;;;;;;;26.15;30.86;101945.25;1896049;76;21146;-64
2021/09/08 11:13:59;;;;;;;2.37;1.10;;;;;;;25.92;31.20;101940.47;1895749;76;21534;-64
2021/09/08 11:16:29;;;;;;;2.37;1.02;;;;;;;25.69;31.66;101935.63;1894588;76;21161;-64
2021/09/08 11:19:00;;;;;;;4.67;1.27;;;;;;;25.59;32.05;101936.06;1896246;76;21063;-64
2021/09/08 11:21:31;;;;;;;4.33;0.82;;;;;;;25.47;32.30;101937.09;1866555;76;21055;-64
2021/09/08 11:24:02;;;;;;;2.35;1.10;;;;;;;25.27;32.64;101934.23;1896209;76;21121;-64
2021/09/08 11:26:34;;;;;;;3.30;1.30;;;;;;;24.88;32.83;101935.14;1896135;76;21137;-64
2021/09/08 11:29:08;;;;;;;6.95;1.50;;;;;;;24.59;33.70;101939.67;1896167;76;21117;-64
2021/09/08 11:31:44;;;;;;;7.30;1.30;;;;;;;24.44;33.89;101930.09;1896153;76;21019;-64
2021/09/08 11:34:25;;;;;;;3.55;1.25;;;;;;;24.32;34.36;101937.78;1896128;76;21443;-65
2021/09/08 11:36:57;;;;;;;4.00;0.88;;;;;;;24.19;34.23;101930.66;1896151;76;21051;-64